Thetys II — FGTO — position and weather

sailwx.info

Track history (hours):
 
Tides and Currents Weather Stations Pressure Air Temp Water Temp Dewpoint Dewpoint Depression Visibility Wind Speed Wind Dir Waves Ship Positions

Oceanographic research ship Thetys II (France)

Last reported at 2019-Jun-19 18:49 UTC. Time now 2019-Jun-19 21:51 UTC.
Position N 39°56' E 009°42'.

Length 25 m; beam 8 m.

Type: Ship. MMSI: 227212000.

Date/timePositionNaut miles runAvg speedWind from/ knotsBaromVisibWave heightAir tempDewpointWater temp
2019-Jun-19 18:49N 39°56' E 009°42'0 0.0
2019-Jun-19 18:10N 39°56' E 009°42'0 0.0
2019-Jun-19 17:52N 39°56' E 009°42'0 0.0
2019-Jun-19 16:40N 39°56' E 009°42'0 0.0
2019-Jun-19 16:25N 39°56' E 009°42'0 0.0
2019-Jun-19 15:58N 39°56' E 009°42'0 0.4
2019-Jun-19 15:30N 39°56' E 009°42'6 8.7
2019-Jun-19 14:48N 40°02' E 009°45'28 2.0
2019-Jun-19 00:49N 40°29' E 009°55'3 0.5
2019-Jun-18 19:23N 40°32' E 009°53'6 0.6
2019-Jun-18 09:46N 40°27' E 009°57'1 4.0
2019-Jun-18 09:30N 40°27' E 009°55'3 1.4
2019-Jun-18 07:33N 40°27' E 009°52'2 4.1
2019-Jun-18 07:08N 40°27' E 009°54'1 4.1
2019-Jun-18 07:00N 40°26' E 009°55'2 1.1
2019-Jun-18 05:24N 40°26' E 009°52'3 1.5
2019-Jun-18 03:14N 40°24' E 009°55'1 3.7
2019-Jun-18 02:58N 40°23' E 009°56'2 3.5
2019-Jun-18 02:31N 40°24' E 009°54'2 4.0
2019-Jun-18 02:00N 40°25' E 009°52'3 4.1
2019-Jun-18 01:23N 40°26' E 009°49'1 2.0
2019-Jun-18 01:00N 40°25' E 009°49'2 4.1
2019-Jun-18 00:30N 40°24' E 009°51'2 4.0
2019-Jun-18 00:00N 40°23' E 009°54'2 4.2
2019-Jun-17 23:30N 40°22' E 009°56'1 1.8
2019-Jun-17 23:00N 40°21' E 009°55'2 4.2
2019-Jun-17 22:30N 40°22' E 009°53'3 4.1
2019-Jun-17 21:51N 40°24' E 009°50'0 4.0
2019-Jun-17 21:47N 40°24' E 009°50'0 4.0
2019-Jun-17 21:45N 40°24' E 009°50'1 4.0
2019-Jun-17 21:37N 40°24' E 009°49'  
2019-Jun-13 20:40N 39°56' E 009°42'0 0.0
2019-Jun-13 19:55N 39°56' E 009°42'0 0.0
2019-Jun-13 19:25N 39°56' E 009°42'0 0.0
2019-Jun-13 18:25N 39°56' E 009°42'0 0.0
2019-Jun-13 17:58N 39°56' E 009°42'0 0.0
2019-Jun-13 17:10N 39°56' E 009°42'0 0.0
2019-Jun-13 16:55N 39°56' E 009°42'5 3.1
2019-Jun-13 15:09N 40°02' E 009°44'110.7
2019-Jun-13 15:00N 40°03' E 009°44'  
2019-Jun-10 12:12N 40°09' E 009°40'3 3.7
2019-Jun-10 11:23N 40°09' E 009°44'2 3.7
2019-Jun-10 10:48N 40°08' E 009°42'1 1.9
2019-Jun-10 10:30N 40°08' E 009°42'11 0.4
2019-Jun-09 03:17N 39°56' E 009°42'0 0.0
2019-Jun-09 02:47N 39°56' E 009°42'127 3.0
2019-Jun-07 07:49N 41°45' E 008°16'4 8.6
2019-Jun-07 07:19N 41°48' E 008°12'3 9.0
2019-Jun-07 07:00N 41°50' E 008°09'4 8.8
2019-Jun-07 06:31N 41°53' E 008°04'12 7.7
2019-Jun-07 04:58N 41°60' E 007°51'5710.4
2019-Jun-06 23:28N 42°35' E 006°50'2110.9
2019-Jun-06 21:30N 42°48' E 006°27'810.8
2019-Jun-06 20:45N 42°53' E 006°18'2111.0
2019-Jun-06 18:52N 43°05' E 005°56'2 6.1
2019-Jun-06 18:31N 43°06' E 005°53'0 0.0
2019-Jun-06 17:58N 43°06' E 005°53'0 0.0
2019-Jun-06 17:28N 43°06' E 005°53'0 0.0
2019-Jun-06 16:58N 43°06' E 005°53'0 0.0
2019-Jun-06 16:28N 43°06' E 005°53'0 0.0
2019-Jun-06 15:58N 43°06' E 005°53'0 0.0
2019-Jun-06 15:28N 43°06' E 005°53'0 0.0
2019-Jun-06 14:58N 43°06' E 005°53'0 0.0
2019-Jun-06 14:28N 43°06' E 005°53'0 0.0
2019-Jun-06 13:58N 43°06' E 005°53'0 0.0
2019-Jun-06 13:28N 43°06' E 005°53'0 0.0
2019-Jun-06 12:58N 43°06' E 005°53'0 0.0
2019-Jun-06 12:28N 43°06' E 005°53'0 0.0
2019-Jun-06 11:58N 43°06' E 005°53'0 0.0
2019-Jun-06 11:28N 43°06' E 005°53'0 0.0
2019-Jun-06 10:58N 43°06' E 005°53'0 0.0
2019-Jun-06 10:28N 43°06' E 005°53'0 0.0
2019-Jun-06 09:58N 43°06' E 005°53'0 0.0
2019-Jun-06 09:28N 43°06' E 005°53'0 0.0
2019-Jun-06 08:58N 43°06' E 005°53'0 0.0
2019-Jun-06 08:28N 43°06' E 005°53'0 0.0
2019-Jun-06 07:58N 43°06' E 005°53'0 0.0
2019-Jun-06 07:28N 43°06' E 005°53'0 0.0
2019-Jun-06 06:58N 43°06' E 005°53'0 0.0
2019-Jun-06 06:25N 43°06' E 005°53'0 0.0
2019-Jun-06 05:58N 43°06' E 005°53'0 0.0
2019-Jun-06 05:28N 43°06' E 005°53'0 0.0
2019-Jun-06 04:58N 43°06' E 005°53'0 0.0
2019-Jun-06 04:28N 43°06' E 005°53'0 0.0
2019-Jun-06 03:58N 43°06' E 005°53'0 0.0
2019-Jun-06 03:28N 43°06' E 005°53'0 0.0
2019-Jun-06 02:58N 43°06' E 005°53'0 0.0
2019-Jun-06 02:28N 43°06' E 005°53'0 0.0
2019-Jun-06 01:58N 43°06' E 005°53'0 0.0
2019-Jun-06 01:28N 43°06' E 005°53'0 0.0
2019-Jun-06 00:58N 43°06' E 005°53'0 0.0
2019-Jun-06 00:28N 43°06' E 005°53'0 0.0
2019-Jun-05 23:58N 43°06' E 005°53'0 0.0
2019-Jun-05 23:28N 43°06' E 005°53'0 0.0
2019-Jun-05 22:58N 43°06' E 005°53'0 0.0
2019-Jun-05 22:28N 43°06' E 005°53'0 0.0
2019-Jun-05 21:58N 43°06' E 005°53'0 0.0
2019-Jun-05 21:28N 43°06' E 005°53'0 0.0
2019-Jun-05 20:58N 43°06' E 005°53'0 0.0
2019-Jun-05 20:28N 43°06' E 005°53'0 0.0
2019-Jun-05 19:58N 43°06' E 005°53'0 0.0
2019-Jun-05 19:28N 43°06' E 005°53'0 0.0
2019-Jun-05 18:58N 43°06' E 005°53'0 0.0
2019-Jun-05 18:28N 43°06' E 005°53'0 0.0
2019-Jun-05 17:58N 43°06' E 005°53'0 0.0
2019-Jun-05 17:28N 43°06' E 005°53'0 0.0
2019-Jun-05 16:58N 43°06' E 005°53'0 0.0
2019-Jun-05 16:28N 43°06' E 005°53'0 0.0
2019-Jun-05 15:58N 43°06' E 005°53'0 0.0
2019-Jun-05 15:28N 43°06' E 005°53'0 0.0
2019-Jun-05 14:58N 43°06' E 005°53'0 0.0
2019-Jun-05 14:28N 43°06' E 005°53'0 0.0
2019-Jun-05 13:58N 43°06' E 005°53'0 0.0
2019-Jun-05 13:28N 43°06' E 005°53'0 0.0
2019-Jun-05 12:58N 43°06' E 005°53'0 0.0
2019-Jun-05 12:28N 43°06' E 005°53'0 0.0
2019-Jun-05 11:58N 43°06' E 005°53'0 0.0
2019-Jun-05 11:28N 43°06' E 005°53'0 0.0
2019-Jun-05 10:58N 43°06' E 005°53'0 0.0
2019-Jun-05 10:28N 43°06' E 005°53'0 0.0
2019-Jun-05 09:58N 43°06' E 005°53'0 0.0
2019-Jun-05 09:28N 43°06' E 005°53'0 0.0
2019-Jun-05 08:58N 43°06' E 005°53'0 0.0
2019-Jun-05 08:28N 43°06' E 005°53'0 0.0
2019-Jun-05 08:00N 43°06' E 005°53'1 3.0
2019-Jun-05 07:31N 43°06' E 005°55'  
Track history (hours):
 
Tides and Currents Weather Stations Pressure Air Temp Water Temp Dewpoint Dewpoint Depression Visibility Wind Speed Wind Dir Waves Ship Positions

Oceanographic research ship Thetys II (France)

Last reported at 2019-Jun-19 18:49 UTC. Time now 2019-Jun-19 21:51 UTC.
Position N 39°56' E 009°42'.

Length 25 m; beam 8 m.

Type: Ship. MMSI: 227212000.

Date/timePositionNaut miles runAvg speedWind from/ knotsBaromVisibWave heightAir tempDewpointWater temp
2019-Jun-19 18:49N 39°56' E 009°42'0 0.0
2019-Jun-19 18:10N 39°56' E 009°42'0 0.0
2019-Jun-19 17:52N 39°56' E 009°42'0 0.0
2019-Jun-19 16:40N 39°56' E 009°42'0 0.0
2019-Jun-19 16:25N 39°56' E 009°42'0 0.0
2019-Jun-19 15:58N 39°56' E 009°42'0 0.4
2019-Jun-19 15:30N 39°56' E 009°42'6 8.7
2019-Jun-19 14:48N 40°02' E 009°45'28 2.0
2019-Jun-19 00:49N 40°29' E 009°55'3 0.5
2019-Jun-18 19:23N 40°32' E 009°53'6 0.6
2019-Jun-18 09:46N 40°27' E 009°57'1 4.0
2019-Jun-18 09:30N 40°27' E 009°55'3 1.4
2019-Jun-18 07:33N 40°27' E 009°52'2 4.1
2019-Jun-18 07:08N 40°27' E 009°54'1 4.1
2019-Jun-18 07:00N 40°26' E 009°55'2 1.1
2019-Jun-18 05:24N 40°26' E 009°52'3 1.5
2019-Jun-18 03:14N 40°24' E 009°55'1 3.7
2019-Jun-18 02:58N 40°23' E 009°56'2 3.5
2019-Jun-18 02:31N 40°24' E 009°54'2 4.0
2019-Jun-18 02:00N 40°25' E 009°52'3 4.1
2019-Jun-18 01:23N 40°26' E 009°49'1 2.0
2019-Jun-18 01:00N 40°25' E 009°49'2 4.1
2019-Jun-18 00:30N 40°24' E 009°51'2 4.0
2019-Jun-18 00:00N 40°23' E 009°54'2 4.2
2019-Jun-17 23:30N 40°22' E 009°56'1 1.8
2019-Jun-17 23:00N 40°21' E 009°55'2 4.2
2019-Jun-17 22:30N 40°22' E 009°53'3 4.1
2019-Jun-17 21:51N 40°24' E 009°50'0 4.0
2019-Jun-17 21:47N 40°24' E 009°50'0 4.0
2019-Jun-17 21:45N 40°24' E 009°50'1 4.0
2019-Jun-17 21:37N 40°24' E 009°49'  
2019-Jun-13 20:40N 39°56' E 009°42'0 0.0
2019-Jun-13 19:55N 39°56' E 009°42'0 0.0
2019-Jun-13 19:25N 39°56' E 009°42'0 0.0
2019-Jun-13 18:25N 39°56' E 009°42'0 0.0
2019-Jun-13 17:58N 39°56' E 009°42'0 0.0
2019-Jun-13 17:10N 39°56' E 009°42'0 0.0
2019-Jun-13 16:55N 39°56' E 009°42'5 3.1
2019-Jun-13 15:09N 40°02' E 009°44'110.7
2019-Jun-13 15:00N 40°03' E 009°44'  
2019-Jun-10 12:12N 40°09' E 009°40'3 3.7
2019-Jun-10 11:23N 40°09' E 009°44'2 3.7
2019-Jun-10 10:48N 40°08' E 009°42'1 1.9
2019-Jun-10 10:30N 40°08' E 009°42'11 0.4
2019-Jun-09 03:17N 39°56' E 009°42'0 0.0
2019-Jun-09 02:47N 39°56' E 009°42'127 3.0
2019-Jun-07 07:49N 41°45' E 008°16'4 8.6
2019-Jun-07 07:19N 41°48' E 008°12'3 9.0
2019-Jun-07 07:00N 41°50' E 008°09'4 8.8
2019-Jun-07 06:31N 41°53' E 008°04'12 7.7
2019-Jun-07 04:58N 41°60' E 007°51'5710.4
2019-Jun-06 23:28N 42°35' E 006°50'2110.9
2019-Jun-06 21:30N 42°48' E 006°27'810.8
2019-Jun-06 20:45N 42°53' E 006°18'2111.0
2019-Jun-06 18:52N 43°05' E 005°56'2 6.1
2019-Jun-06 18:31N 43°06' E 005°53'0 0.0
2019-Jun-06 17:58N 43°06' E 005°53'0 0.0
2019-Jun-06 17:28N 43°06' E 005°53'0 0.0
2019-Jun-06 16:58N 43°06' E 005°53'0 0.0
2019-Jun-06 16:28N 43°06' E 005°53'0 0.0
2019-Jun-06 15:58N 43°06' E 005°53'0 0.0
2019-Jun-06 15:28N 43°06' E 005°53'0 0.0
2019-Jun-06 14:58N 43°06' E 005°53'0 0.0
2019-Jun-06 14:28N 43°06' E 005°53'0 0.0
2019-Jun-06 13:58N 43°06' E 005°53'0 0.0
2019-Jun-06 13:28N 43°06' E 005°53'0 0.0
2019-Jun-06 12:58N 43°06' E 005°53'0 0.0
2019-Jun-06 12:28N 43°06' E 005°53'0 0.0
2019-Jun-06 11:58N 43°06' E 005°53'0 0.0
2019-Jun-06 11:28N 43°06' E 005°53'0 0.0
2019-Jun-06 10:58N 43°06' E 005°53'0 0.0
2019-Jun-06 10:28N 43°06' E 005°53'0 0.0
2019-Jun-06 09:58N 43°06' E 005°53'0 0.0
2019-Jun-06 09:28N 43°06' E 005°53'0 0.0
2019-Jun-06 08:58N 43°06' E 005°53'0 0.0
2019-Jun-06 08:28N 43°06' E 005°53'0 0.0
2019-Jun-06 07:58N 43°06' E 005°53'0 0.0
2019-Jun-06 07:28N 43°06' E 005°53'0 0.0
2019-Jun-06 06:58N 43°06' E 005°53'0 0.0
2019-Jun-06 06:25N 43°06' E 005°53'0 0.0
2019-Jun-06 05:58N 43°06' E 005°53'0 0.0
2019-Jun-06 05:28N 43°06' E 005°53'0 0.0
2019-Jun-06 04:58N 43°06' E 005°53'0 0.0
2019-Jun-06 04:28N 43°06' E 005°53'0 0.0
2019-Jun-06 03:58N 43°06' E 005°53'0 0.0
2019-Jun-06 03:28N 43°06' E 005°53'0 0.0
2019-Jun-06 02:58N 43°06' E 005°53'0 0.0
2019-Jun-06 02:28N 43°06' E 005°53'0 0.0
2019-Jun-06 01:58N 43°06' E 005°53'0 0.0
2019-Jun-06 01:28N 43°06' E 005°53'0 0.0
2019-Jun-06 00:58N 43°06' E 005°53'0 0.0
2019-Jun-06 00:28N 43°06' E 005°53'0 0.0
2019-Jun-05 23:58N 43°06' E 005°53'0 0.0
2019-Jun-05 23:28N 43°06' E 005°53'0 0.0
2019-Jun-05 22:58N 43°06' E 005°53'0 0.0
2019-Jun-05 22:28N 43°06' E 005°53'0 0.0
2019-Jun-05 21:58N 43°06' E 005°53'0 0.0
2019-Jun-05 21:28N 43°06' E 005°53'0 0.0
2019-Jun-05 20:58N 43°06' E 005°53'0 0.0
2019-Jun-05 20:28N 43°06' E 005°53'0 0.0
2019-Jun-05 19:58N 43°06' E 005°53'0 0.0
2019-Jun-05 19:28N 43°06' E 005°53'0 0.0
2019-Jun-05 18:58N 43°06' E 005°53'0 0.0
2019-Jun-05 18:28N 43°06' E 005°53'0 0.0
2019-Jun-05 17:58N 43°06' E 005°53'0 0.0
2019-Jun-05 17:28N 43°06' E 005°53'0 0.0
2019-Jun-05 16:58N 43°06' E 005°53'0 0.0
2019-Jun-05 16:28N 43°06' E 005°53'0 0.0
2019-Jun-05 15:58N 43°06' E 005°53'0 0.0
2019-Jun-05 15:28N 43°06' E 005°53'0 0.0
2019-Jun-05 14:58N 43°06' E 005°53'0 0.0
2019-Jun-05 14:28N 43°06' E 005°53'0 0.0
2019-Jun-05 13:58N 43°06' E 005°53'0 0.0
2019-Jun-05 13:28N 43°06' E 005°53'0 0.0
2019-Jun-05 12:58N 43°06' E 005°53'0 0.0
2019-Jun-05 12:28N 43°06' E 005°53'0 0.0
2019-Jun-05 11:58N 43°06' E 005°53'0 0.0
2019-Jun-05 11:28N 43°06' E 005°53'0 0.0
2019-Jun-05 10:58N 43°06' E 005°53'0 0.0
2019-Jun-05 10:28N 43°06' E 005°53'0 0.0
2019-Jun-05 09:58N 43°06' E 005°53'0 0.0
2019-Jun-05 09:28N 43°06' E 005°53'0 0.0
2019-Jun-05 08:58N 43°06' E 005°53'0 0.0
2019-Jun-05 08:28N 43°06' E 005°53'0 0.0
2019-Jun-05 08:00N 43°06' E 005°53'1 3.0
2019-Jun-05 07:31N 43°06' E 005°55'  

Dump ship's entire track history